Flight Track Log - Related Links

Times and Time Zones

All times are in EST time to prevent confusion due to time zone crossing. See the EJA122 flight status page for this flight to view local times or setup timezone preferences in your user account.

Time Position Orientation Groundspeed Altitude Reporting Facility
EST Latitude Longitude Course Direction KTS MPH feet Rate Location/Type
Mon 03:09:26 PM 37.3253 -80.0803 277° West 191 220 5,500  Level Indianapolis Center
Mon 03:10:28 PM 37.3369 -80.1642 280° West 236 272 9,300 3,677 Climbing Indianapolis Center
Mon 03:11:30 PM 37.3525 -80.2603 282° West 241 277 13,100 3,073 Climbing Indianapolis Center
Mon 03:12:31 PM 37.3672 -80.3444 282° West 249 287 15,600 2,293 Climbing Indianapolis Center
Mon 03:13:33 PM 37.3817 -80.4333 282° West 261 300 17,800 2,133 Climbing Indianapolis Center
Mon 03:14:00 PM 37.4836 -80.7757 277° West  Level Estimated
Mon 03:14:46 PM 37.3972 -80.5458 280° West 262 302 20,400  Level Washington Center
Mon 03:15:47 PM 37.4122 -80.6331 282° West 257 296 22,400 1,393 Climbing Washington Center
Mon 03:16:38 PM 37.4272 -80.7117 284° West 265 305 23,000 319 Climbing Indianapolis Center
Mon 03:17:40 PM 37.4419 -80.8131 280° West 294 338 23,000 146 Level Indianapolis Center
Mon 03:18:41 PM 37.4606 -80.9258 282° West 329 379 23,300 976 Climbing Indianapolis Center
Mon 03:19:43 PM 37.4825 -81.0561 282° West 326 375 25,000 1,500 Climbing Indianapolis Center
Mon 03:20:45 PM 37.4981 -81.1553 281° West 302 348 26,400 1,355 Climbing Indianapolis Center
Mon 03:21:47 PM 37.5119 -81.2478 281° West 281 323 27,800 1,268 Climbing Indianapolis Center
Mon 03:22:48 PM 37.5258 -81.3361 281° West 267 307 29,000 1,073 Climbing Indianapolis Center
Mon 03:23:50 PM 37.5225 -81.4383 268° West 250 288 30,000 484 Climbing Indianapolis Center
Mon 03:24:52 PM 37.5150 -81.5211 264° West 251 289 30,000 390 Level Indianapolis Center
Mon 03:25:53 PM 37.5047 -81.6117 262° West 260 299 30,800 927 Climbing Indianapolis Center
Mon 03:26:55 PM 37.5008 -81.7133 267° West 252 290 31,900 1,016 Climbing Indianapolis Center
Mon 03:27:57 PM 37.5161 -81.8019 282° West 255 293 32,900 976 Climbing Indianapolis Center
Mon 03:28:58 PM 37.5311 -81.8875 282° West 251 289 33,900 927 Climbing Indianapolis Center
Mon 03:30:00 PM 37.5458 -81.9708 283° West 246 283 34,800 919 Climbing Indianapolis Center
Mon 03:31:02 PM 37.5586 -82.0517 281° West 238 274 35,800 585 Climbing Indianapolis Center
Mon 03:32:03 PM 37.5719 -82.1314 282° West 234 269 36,000 98 Climbing Indianapolis Center
Mon 03:33:05 PM 37.5889 -82.2325 282° West 249 287 36,000  Level Indianapolis Center
Mon 03:34:07 PM 37.6044 -82.3242 282° West 264 304 36,000  Level Indianapolis Center
Mon 03:35:08 PM 37.6206 -82.4189 282° West 273 314 36,000  Level Indianapolis Center
Mon 03:36:10 PM 37.6367 -82.5181 282° West 284 327 36,000  Level Indianapolis Center
Mon 03:37:12 PM 37.6542 -82.6189 282° West 293 337 36,000  Level Indianapolis Center
Mon 03:38:14 PM 37.6714 -82.7194 282° West 294 338 36,000  Level Indianapolis Center
Mon 03:39:15 PM 37.6908 -82.8386 282° West 297 342 36,000  Level Indianapolis Center
Mon 03:40:17 PM 37.7075 -82.9425 281° West 301 346 36,000  Level Indianapolis Center
Mon 03:41:18 PM 37.7239 -83.0456 281° West 301 346 36,000  Level Indianapolis Center
Mon 03:42:20 PM 37.7400 -83.1472 281° West 298 343 36,000  Level Indianapolis Center
Mon 03:43:22 PM 37.7569 -83.2511 282° West 299 344 36,000  Level Indianapolis Center
Mon 03:44:24 PM 37.7725 -83.3550 281° West 301 346 36,000  Level Indianapolis Center
Mon 03:45:25 PM 37.7892 -83.4583 282° West 302 348 36,000  Level Indianapolis Center
Mon 03:46:27 PM 37.8083 -83.5794 281° West 301 346 36,000  Level Indianapolis Center
Mon 03:47:28 PM 37.8250 -83.6814 282° West 298 343 36,000  Level Indianapolis Center
Mon 03:48:30 PM 37.8400 -83.7850 280° West 298 343 36,000  Level Indianapolis Center
Mon 03:49:32 PM 37.8567 -83.8883 282° West 299 344 36,000  Level Indianapolis Center
Mon 03:50:33 PM 37.8719 -83.9903 281° West 298 343 36,000  Level Indianapolis Center
Mon 03:51:35 PM 37.8878 -84.0947 281° West 300 345 36,000  Level Indianapolis Center
Mon 03:52:37 PM 37.9058 -84.2144 281° West 297 342 36,000  Level Indianapolis Center
Mon 03:53:39 PM 37.9214 -84.3183 281° West 300 345 36,000  Level Indianapolis Center
Mon 03:54:40 PM 37.9367 -84.4214 281° West 298 343 36,000  Level Indianapolis Center
Mon 03:55:42 PM 37.9519 -84.5261 281° West 302 348 36,000  Level Indianapolis Center
Mon 03:56:44 PM 37.9678 -84.6319 281° West 306 352 36,000  Level Indianapolis Center
Mon 03:57:45 PM 37.9822 -84.7386 280° West 307 353 36,000  Level Indianapolis Center
Mon 03:58:47 PM 37.9978 -84.8450 281° West 308 354 36,000  Level Indianapolis Center
Mon 03:59:49 PM 38.0169 -84.9714 281° West 311 358 36,000  Level Indianapolis Center
Mon 04:00:50 PM 38.0322 -85.0803 280° West 315 362 36,000  Level Indianapolis Center
Mon 04:01:52 PM 38.0483 -85.1894 281° West 316 364 36,000  Level Indianapolis Center
Mon 04:02:54 PM 38.0636 -85.2972 280° West 318 366 36,000  Level Indianapolis Center
Mon 04:03:55 PM 38.0778 -85.4083 279° West 318 366 36,000  Level Indianapolis Center
Mon 04:04:57 PM 38.0947 -85.5183 281° West 318 366 36,000  Level Indianapolis Center
Mon 04:05:59 PM 38.1133 -85.6292 282° West 320 368 36,000  Level Indianapolis Center
Mon 04:07:00 PM 38.1336 -85.7422 283° West 325 374 36,000  Level Indianapolis Center
Mon 04:08:02 PM 38.1564 -85.8783 282° West 329 379 36,000  Level Indianapolis Center
Mon 04:09:04 PM 38.1764 -85.9950 282° West 335 386 36,000  Level Indianapolis Center
Mon 04:10:05 PM 38.1967 -86.1094 283° West 332 382 36,000  Level Indianapolis Center
Mon 04:11:07 PM 38.2167 -86.2269 282° West 337 388 36,000  Level Indianapolis Center
Mon 04:12:09 PM 38.2372 -86.3447 283° West 339 390 36,000  Level Indianapolis Center
Mon 04:13:10 PM 38.2567 -86.4606 282° West 335 386 36,000  Level Indianapolis Center
Mon 04:14:12 PM 38.2761 -86.5778 282° West 336 387 36,000  Level Indianapolis Center
Mon 04:15:14 PM 38.2958 -86.6950 282° West 338 389 36,000  Level Indianapolis Center
Mon 04:16:15 PM 38.3119 -86.8106 280° West 333 383 36,000  Level Indianapolis Center
Mon 04:17:17 PM 38.3256 -86.9292 278° West 336 387 36,000  Level Indianapolis Center
Mon 04:18:19 PM 38.3397 -87.0517 278° West 332 382 36,000  Level Indianapolis Center
Mon 04:19:21 PM 38.3528 -87.1686 278° West 331 381 36,000  Level Indianapolis Center
Mon 04:20:22 PM 38.3678 -87.2931 279° West 336 387 36,000  Level Indianapolis Center
Mon 04:21:24 PM 38.3808 -87.4114 278° West 337 388 36,000  Level Indianapolis Center
Mon 04:22:26 PM 38.3964 -87.5517 278° West 333 383 36,000  Level Indianapolis Center
Mon 04:23:27 PM 38.4092 -87.6658 278° West 327 376 36,000  Level Indianapolis Center
Mon 04:24:29 PM 38.4211 -87.7772 278° West 319 367 36,000  Level Indianapolis Center
Mon 04:25:30 PM 38.4333 -87.8881 278° West 315 362 36,000  Level Indianapolis Center
Mon 04:26:32 PM 38.4444 -87.9978 277° West 313 360 36,000  Level Indianapolis Center
Mon 04:27:34 PM 38.4564 -88.1058 278° West 308 354 36,000  Level Indianapolis Center
Mon 04:28:35 PM 38.4681 -88.2144 278° West 309 356 36,000  Level Kansas City Center
Mon 04:29:37 PM 38.4794 -88.3214 278° West 306 352 36,000  Level Kansas City Center
Mon 04:30:39 PM 38.4903 -88.4289 277° West 304 350 36,000  Level Kansas City Center
Mon 04:31:41 PM 38.5044 -88.5578 278° West 308 354 36,000  Level Kansas City Center
Mon 04:32:43 PM 38.5144 -88.6647 277° West 305 351 36,000  Level Kansas City Center
Mon 04:33:45 PM 38.5256 -88.7828 277° West 310 357 36,000  Level Kansas City Center
Mon 04:34:47 PM 38.5367 -88.8917 277° West 311 358 36,000  Level Kansas City Center
Mon 04:35:49 PM 38.5472 -89.0017 277° West 313 360 36,000  Level Kansas City Center
Mon 04:36:51 PM 38.5592 -89.1222 277° West 318 366 36,000 -97 Level Kansas City Center
Mon 04:37:53 PM 38.5703 -89.2344 277° West 319 367 35,800 -435 Descending Kansas City Center
Mon 04:38:55 PM 38.5811 -89.3478 277° West 327 376 35,100 -726 Descending Kansas City Center
Mon 04:39:57 PM 38.5914 -89.4642 276° West 331 381 34,300 -1,016 Descending Kansas City Center
Mon 04:40:59 PM 38.6036 -89.5825 278° West 336 387 33,000 -1,403 Descending Kansas City Center
Mon 04:42:01 PM 38.6153 -89.7025 277° West 339 390 31,400 -1,645 Descending Kansas City Center
Mon 04:43:03 PM 38.6286 -89.8500 277° West 347 399 29,600 -1,597 Descending Kansas City Center
Mon 04:44:05 PM 38.6400 -89.9794 276° West 361 415 28,100 -1,548 Descending Kansas City Center
Mon 04:45:07 PM 38.6517 -90.1200 276° West 367 422 26,400 -1,597 Descending Kansas City Center
Mon 04:46:09 PM 38.6631 -90.2575 276° West 381 438 24,800 -1,161 Descending Kansas City Center
Mon 04:47:11 PM 38.6758 -90.3892 277° West 373 429 24,000 -581 Descending Kansas City Center
Mon 04:48:13 PM 38.6881 -90.5214 277° West 371 427 23,600 -1,210 Descending Kansas City Center
Mon 04:49:15 PM 38.6961 -90.6492 275° West 366 421 21,500 -1,935 Descending Kansas City Center
Mon 04:50:17 PM 38.7067 -90.7808 276° West 369 425 19,600 -1,742 Descending Kansas City Center
Mon 04:51:19 PM 38.7175 -90.9094 276° West 369 425 17,900 -1,694 Descending Kansas City Center
Mon 04:52:21 PM 38.7297 -91.0567 276° West 358 412 16,100 -912 Descending Kansas City Center
Mon 04:53:24 PM 38.7414 -91.1753 277° West 342 394 16,000 -48 Descending Kansas City Center
Mon 04:54:26 PM 38.7517 -91.2992 276° West 348 400 16,000 -871 Level Kansas City Center
Mon 04:55:28 PM 38.7608 -91.4192 276° West 344 396 14,200 -1,645 Descending Kansas City Center
Mon 04:57:32 PM 38.7781 -91.6461 276° West 320 368 10,900 -1,581 Descending Kansas City Center
Mon 04:58:34 PM 38.7872 -91.7575 276° West 253 291 9,300 -1,403 Descending Kansas City Center
Mon 04:59:36 PM 38.7981 -91.8397 280° West 235 270 8,000 -1,597 Descending Kansas City Center
Mon 05:00:38 PM 38.8094 -91.9225 280° West 236 272 6,000 -1,984 Descending Kansas City Center
Mon 05:01:40 PM 38.8194 -91.9969 280° West 220 253 3,900 -1,403 Descending Kansas City Center
Mon 05:02:42 PM 38.8306 -92.0650 282° West 209 241 3,100 -581 Descending Kansas City Center
Mon 05:03:44 PM 38.8400 -92.1242 282° West 191 220 2,700 -484 Descending Kansas City Center
Mon 05:04:46 PM 38.8444 -92.1758 276° West 172 198 2,100 -677 Descending Kansas City Center
Mon 05:05:48 PM 38.8256 -92.2125 237° Southwest 159 183 1,300 -774 Descending Kansas City Center
Mon 05:07:00 PM 38.8167 -92.2167 288° West  Level FlightAware Approximate
Mon 05:14:00 PM 38.8181 -92.2196 288° West  Level Estimated

Login

Don't have an account? Register now (free) for customized features, flight alerts, and more!